EWG2774 EDDS-EIDW
Flight info
| Callsign | EWG2774 |
|---|---|
| Flight time | 1h 42m |
| Altitude | 38000 |
| Route | VESID2H VESID Y127 TUDGA Z114 ADENU L608 LIRSU DCT SOGRI DCT DENUT L610 KOPUL Q63 ICTAM T421 DIDZA DCT CESQA DCT BIBPE DCT OKTAD DCT MEDOG DCT LANON L18 ABLIN ABLIN4L |
| Aircraft | A319/M-SDE3FGHIRWY/LB1 |
Departure
| Time | 2026-05-05 09:17 |
|---|---|
| Airport | Stuttgart Airport (EDDS) |
Arrival
| Time | 2026-05-05 10:59 |
|---|---|
| Airport | Dublin Airport (EIDW) |
| Time | Latitude | Longitude | Altitude | Speed | Heading |
|---|---|---|---|---|---|
| 2026-05-05 09:11 | 48.68962 | 9.19985 | 1303 ft | 1 kts | 238° |
| 2026-05-05 09:13 | 48.68954 | 9.19967 | 1303 ft | 4 kts | 238° |
| 2026-05-05 09:14 | 48.68937 | 9.19924 | 1303 ft | 5 kts | 238° |
| 2026-05-05 09:14 | 48.68909 | 9.19880 | 1303 ft | 7 kts | 210° |
| 2026-05-05 09:14 | 48.68847 | 9.19889 | 1300 ft | 10 kts | 161° |
| 2026-05-05 09:14 | 48.68806 | 9.19924 | 1296 ft | 8 kts | 147° |
| 2026-05-05 09:15 | 48.68753 | 9.19955 | 1293 ft | 9 kts | 165° |
| 2026-05-05 09:15 | 48.68675 | 9.19989 | 1288 ft | 15 kts | 163° |
| 2026-05-05 09:15 | 48.68598 | 9.20024 | 1287 ft | 8 kts | 163° |
| 2026-05-05 09:15 | 48.68585 | 9.20075 | 1283 ft | 0 kts | 75° |
| 2026-05-05 09:16 | 48.68587 | 9.20088 | 1286 ft | 7 kts | 74° |
| 2026-05-05 09:16 | 48.68656 | 9.20447 | 1275 ft | 69 kts | 74° |
| 2026-05-05 09:16 | 48.68845 | 9.21444 | 1255 ft | 126 kts | 74° |
| 2026-05-05 09:16 | 48.69133 | 9.22970 | 1294 ft | 166 kts | 74° |
| 2026-05-05 09:17 | 48.69414 | 9.24640 | 1900 ft | 164 kts | 75° |
| 2026-05-05 09:17 | 48.69708 | 9.26315 | 2486 ft | 169 kts | 73° |
| 2026-05-05 09:17 | 48.70037 | 9.28136 | 2791 ft | 189 kts | 74° |
| 2026-05-05 09:17 | 48.70400 | 9.30143 | 3127 ft | 207 kts | 74° |
| 2026-05-05 09:18 | 48.70813 | 9.32338 | 3558 ft | 221 kts | 74° |
| 2026-05-05 09:18 | 48.71240 | 9.34577 | 4406 ft | 222 kts | 75° |
| 2026-05-05 09:18 | 48.71671 | 9.36830 | 5249 ft | 223 kts | 76° |
| 2026-05-05 09:18 | 48.72103 | 9.39108 | 6061 ft | 228 kts | 76° |
| 2026-05-05 09:19 | 48.72830 | 9.41222 | 6768 ft | 237 kts | 46° |
| 2026-05-05 09:19 | 48.74273 | 9.42427 | 7530 ft | 240 kts | 16° |
| 2026-05-05 09:19 | 48.75916 | 9.42979 | 8320 ft | 245 kts | 11° |
| 2026-05-05 09:19 | 48.77690 | 9.43104 | 8754 ft | 268 kts | 354° |
| 2026-05-05 09:20 | 48.79576 | 9.42508 | 9249 ft | 286 kts | 342° |
| 2026-05-05 09:20 | 48.81435 | 9.41293 | 9905 ft | 295 kts | 333° |
| 2026-05-05 09:20 | 48.83309 | 9.39878 | 10395 ft | 311 kts | 333° |
| 2026-05-05 09:20 | 48.85331 | 9.38382 | 10620 ft | 335 kts | 333° |
| 2026-05-05 09:21 | 48.87433 | 9.36602 | 10767 ft | 357 kts | 326° |
| 2026-05-05 09:21 | 48.89562 | 9.34506 | 11153 ft | 370 kts | 326° |
| 2026-05-05 09:21 | 48.91724 | 9.32333 | 11765 ft | 375 kts | 325° |
| 2026-05-05 09:21 | 48.93909 | 9.30132 | 12438 ft | 378 kts | 325° |
| 2026-05-05 09:22 | 48.96115 | 9.27919 | 13130 ft | 382 kts | 325° |
| 2026-05-05 09:22 | 48.98349 | 9.25688 | 13793 ft | 386 kts | 324° |
| 2026-05-05 09:22 | 49.00605 | 9.23444 | 14349 ft | 390 kts | 324° |
| 2026-05-05 09:22 | 49.02897 | 9.21166 | 14898 ft | 395 kts | 324° |
| 2026-05-05 09:23 | 49.05202 | 9.18871 | 15448 ft | 399 kts | 324° |
| 2026-05-05 09:23 | 49.07535 | 9.16544 | 15999 ft | 403 kts | 324° |
| 2026-05-05 09:23 | 49.09894 | 9.14182 | 16561 ft | 407 kts | 324° |
| 2026-05-05 09:23 | 49.12264 | 9.11804 | 17155 ft | 411 kts | 324° |
| 2026-05-05 09:24 | 49.14662 | 9.09397 | 17735 ft | 414 kts | 324° |
| 2026-05-05 09:24 | 49.16264 | 9.07788 | 18122 ft | 417 kts | 324° |
| 2026-05-05 09:24 | 49.18700 | 9.05337 | 18644 ft | 421 kts | 324° |
| 2026-05-05 09:24 | 49.21156 | 9.02859 | 19187 ft | 424 kts | 324° |
| 2026-05-05 09:25 | 49.23628 | 9.00364 | 19734 ft | 427 kts | 324° |
| 2026-05-05 09:25 | 49.26114 | 8.97853 | 20272 ft | 429 kts | 324° |
| 2026-05-05 09:25 | 49.28610 | 8.95327 | 20788 ft | 431 kts | 324° |
| 2026-05-05 09:25 | 49.31122 | 8.92784 | 21290 ft | 434 kts | 324° |
| 2026-05-05 09:26 | 49.33642 | 8.90229 | 21821 ft | 435 kts | 325° |
| 2026-05-05 09:26 | 49.36171 | 8.87668 | 22319 ft | 436 kts | 325° |
| 2026-05-05 09:26 | 49.38710 | 8.85097 | 22799 ft | 438 kts | 325° |
| 2026-05-05 09:26 | 49.41260 | 8.82514 | 23245 ft | 441 kts | 325° |
| 2026-05-05 09:27 | 49.43822 | 8.79913 | 23677 ft | 442 kts | 325° |
| 2026-05-05 09:27 | 49.46392 | 8.77300 | 24049 ft | 444 kts | 325° |
| 2026-05-05 09:27 | 49.48973 | 8.74665 | 24403 ft | 447 kts | 324° |
| 2026-05-05 09:27 | 49.51566 | 8.72005 | 24764 ft | 449 kts | 324° |
| 2026-05-05 09:28 | 49.54172 | 8.69327 | 25102 ft | 452 kts | 324° |
| 2026-05-05 09:28 | 49.56802 | 8.66628 | 25445 ft | 454 kts | 324° |
| 2026-05-05 09:28 | 49.59440 | 8.63923 | 25797 ft | 457 kts | 324° |
| 2026-05-05 09:28 | 49.62086 | 8.61208 | 26120 ft | 459 kts | 324° |
| 2026-05-05 09:29 | 49.64757 | 8.58456 | 26454 ft | 462 kts | 324° |
| 2026-05-05 09:29 | 49.67431 | 8.55693 | 26792 ft | 463 kts | 323° |
| 2026-05-05 09:29 | 49.69983 | 8.52664 | 27105 ft | 462 kts | 315° |
| 2026-05-05 09:29 | 49.72233 | 8.49128 | 27418 ft | 461 kts | 307° |
| 2026-05-05 09:30 | 49.74161 | 8.45176 | 27724 ft | 460 kts | 300° |
| 2026-05-05 09:30 | 49.75703 | 8.40854 | 28025 ft | 458 kts | 291° |
| 2026-05-05 09:30 | 49.76793 | 8.36240 | 28349 ft | 456 kts | 282° |
| 2026-05-05 09:30 | 49.77557 | 8.31474 | 28689 ft | 457 kts | 280° |
| 2026-05-05 09:31 | 49.78312 | 8.26704 | 29155 ft | 456 kts | 280° |
| 2026-05-05 09:31 | 49.79067 | 8.21963 | 29633 ft | 454 kts | 280° |
| 2026-05-05 09:31 | 49.79828 | 8.17219 | 30100 ft | 452 kts | 280° |
| 2026-05-05 09:31 | 49.80582 | 8.12515 | 30532 ft | 450 kts | 280° |
| 2026-05-05 09:32 | 49.81330 | 8.07822 | 30973 ft | 448 kts | 279° |
| 2026-05-05 09:32 | 49.82063 | 8.03208 | 31434 ft | 445 kts | 279° |
| 2026-05-05 09:32 | 49.82845 | 7.98522 | 31922 ft | 443 kts | 280° |
| 2026-05-05 09:32 | 49.83670 | 7.93989 | 32387 ft | 441 kts | 281° |
| 2026-05-05 09:33 | 49.84542 | 7.89445 | 32855 ft | 439 kts | 281° |
| 2026-05-05 09:33 | 49.85424 | 7.84930 | 33325 ft | 436 kts | 281° |
| 2026-05-05 09:33 | 49.86301 | 7.80430 | 33803 ft | 434 kts | 281° |
| 2026-05-05 09:33 | 49.87156 | 7.75971 | 34200 ft | 432 kts | 280° |
| 2026-05-05 09:34 | 49.87996 | 7.71494 | 34559 ft | 432 kts | 280° |
| 2026-05-05 09:34 | 49.88824 | 7.67010 | 34825 ft | 433 kts | 280° |
| 2026-05-05 09:34 | 49.89646 | 7.62509 | 35105 ft | 434 kts | 280° |
| 2026-05-05 09:34 | 49.90464 | 7.57994 | 35401 ft | 435 kts | 280° |
| 2026-05-05 09:35 | 49.91283 | 7.53474 | 35699 ft | 435 kts | 280° |
| 2026-05-05 09:35 | 49.92931 | 7.44430 | 36271 ft | 437 kts | 281° |
| 2026-05-05 09:35 | 49.93761 | 7.39892 | 36535 ft | 437 kts | 281° |
| 2026-05-05 09:36 | 49.94591 | 7.35349 | 36798 ft | 438 kts | 281° |
| 2026-05-05 09:36 | 49.95417 | 7.30800 | 37049 ft | 438 kts | 281° |
| 2026-05-05 09:36 | 49.96244 | 7.26233 | 37310 ft | 439 kts | 281° |
| 2026-05-05 09:36 | 49.97069 | 7.21663 | 37561 ft | 440 kts | 281° |
| 2026-05-05 09:37 | 49.97892 | 7.17088 | 37821 ft | 440 kts | 281° |
| 2026-05-05 09:37 | 49.98712 | 7.12514 | 37894 ft | 438 kts | 281° |
| 2026-05-05 09:37 | 50.00324 | 7.03455 | 37888 ft | 436 kts | 281° |
| 2026-05-05 09:38 | 50.01933 | 6.94359 | 37870 ft | 436 kts | 281° |
| 2026-05-05 09:38 | 50.04400 | 6.85645 | 37869 ft | 445 kts | 294° |
| 2026-05-05 09:39 | 50.07415 | 6.77229 | 37875 ft | 445 kts | 294° |
| 2026-05-05 09:39 | 50.10402 | 6.68814 | 37867 ft | 444 kts | 294° |
| 2026-05-05 09:40 | 50.13381 | 6.60371 | 37868 ft | 445 kts | 294° |
| 2026-05-05 09:40 | 50.16353 | 6.51925 | 37854 ft | 444 kts | 294° |
| 2026-05-05 09:41 | 50.19453 | 6.43570 | 37839 ft | 448 kts | 301° |
| 2026-05-05 09:41 | 50.23056 | 6.35615 | 37863 ft | 449 kts | 301° |
| 2026-05-05 09:42 | 50.26647 | 6.27627 | 37864 ft | 449 kts | 300° |
| 2026-05-05 09:42 | 50.30209 | 6.19685 | 37886 ft | 449 kts | 300° |
| 2026-05-05 09:43 | 50.33790 | 6.11686 | 37888 ft | 449 kts | 300° |
| 2026-05-05 09:43 | 50.37365 | 6.03676 | 37880 ft | 449 kts | 300° |
| 2026-05-05 09:44 | 50.40925 | 5.95656 | 37888 ft | 448 kts | 300° |
| 2026-05-05 09:44 | 50.44481 | 5.87615 | 37889 ft | 449 kts | 300° |
| 2026-05-05 09:45 | 50.48034 | 5.79562 | 37881 ft | 449 kts | 300° |
| 2026-05-05 09:45 | 50.51588 | 5.71506 | 37895 ft | 448 kts | 300° |
| 2026-05-05 09:46 | 50.55132 | 5.63435 | 37899 ft | 448 kts | 300° |
| 2026-05-05 09:46 | 50.58657 | 5.55371 | 37914 ft | 447 kts | 300° |
| 2026-05-05 09:47 | 50.62166 | 5.47309 | 37906 ft | 447 kts | 300° |
| 2026-05-05 09:47 | 50.65679 | 5.39225 | 37908 ft | 446 kts | 300° |
| 2026-05-05 09:48 | 50.69189 | 5.31142 | 37909 ft | 447 kts | 300° |
| 2026-05-05 09:48 | 50.72690 | 5.23052 | 37902 ft | 446 kts | 300° |
| 2026-05-05 09:49 | 50.76180 | 5.14937 | 37916 ft | 446 kts | 300° |
| 2026-05-05 09:49 | 50.79635 | 5.06876 | 37935 ft | 445 kts | 301° |
| 2026-05-05 09:50 | 50.82610 | 4.98368 | 37927 ft | 441 kts | 293° |
| 2026-05-05 09:50 | 50.85360 | 4.89692 | 37922 ft | 441 kts | 293° |
| 2026-05-05 09:51 | 50.88104 | 4.81011 | 37929 ft | 441 kts | 293° |
| 2026-05-05 09:51 | 50.90833 | 4.72315 | 37926 ft | 441 kts | 293° |
| 2026-05-05 09:52 | 50.93557 | 4.63626 | 37937 ft | 440 kts | 293° |
| 2026-05-05 09:52 | 50.96287 | 4.54928 | 37937 ft | 440 kts | 293° |
| 2026-05-05 09:53 | 50.99010 | 4.46212 | 37931 ft | 440 kts | 293° |
| 2026-05-05 09:53 | 51.01713 | 4.37490 | 37932 ft | 440 kts | 293° |
| 2026-05-05 09:54 | 51.04412 | 4.28762 | 37946 ft | 440 kts | 293° |
| 2026-05-05 09:54 | 51.07105 | 4.20024 | 37944 ft | 440 kts | 293° |
| 2026-05-05 09:55 | 51.09789 | 4.11290 | 37946 ft | 440 kts | 292° |
| 2026-05-05 09:55 | 51.12469 | 4.02534 | 37935 ft | 440 kts | 292° |
| 2026-05-05 09:56 | 51.15139 | 3.93767 | 37926 ft | 440 kts | 292° |
| 2026-05-05 09:56 | 51.17802 | 3.84988 | 37924 ft | 440 kts | 292° |
| 2026-05-05 09:57 | 51.20463 | 3.76203 | 37931 ft | 440 kts | 292° |
| 2026-05-05 09:57 | 51.23085 | 3.67380 | 37928 ft | 439 kts | 288° |
| 2026-05-05 09:58 | 51.24641 | 3.58044 | 37918 ft | 435 kts | 279° |
| 2026-05-05 09:58 | 51.25892 | 3.48603 | 37918 ft | 435 kts | 279° |
| 2026-05-05 09:59 | 51.27144 | 3.39143 | 37925 ft | 435 kts | 279° |
| 2026-05-05 09:59 | 51.28379 | 3.29668 | 37949 ft | 436 kts | 279° |
| 2026-05-05 10:00 | 51.29591 | 3.20180 | 37949 ft | 436 kts | 279° |
| 2026-05-05 10:00 | 51.30794 | 3.10686 | 37951 ft | 436 kts | 279° |
| 2026-05-05 10:01 | 51.31993 | 3.01189 | 37953 ft | 436 kts | 279° |
| 2026-05-05 10:01 | 51.33183 | 2.91690 | 37945 ft | 436 kts | 278° |
| 2026-05-05 10:02 | 51.34354 | 2.82239 | 37960 ft | 436 kts | 279° |
| 2026-05-05 10:02 | 51.35534 | 2.72724 | 37953 ft | 436 kts | 279° |
| 2026-05-05 10:03 | 51.36718 | 2.63200 | 37954 ft | 436 kts | 279° |
| 2026-05-05 10:03 | 51.37890 | 2.53679 | 37953 ft | 437 kts | 279° |
| 2026-05-05 10:04 | 51.39053 | 2.44127 | 37959 ft | 437 kts | 278° |
| 2026-05-05 10:04 | 51.40207 | 2.34577 | 37966 ft | 437 kts | 279° |
| 2026-05-05 10:05 | 51.41348 | 2.25014 | 37970 ft | 437 kts | 279° |
| 2026-05-05 10:05 | 51.42509 | 2.15450 | 37969 ft | 437 kts | 279° |
| 2026-05-05 10:06 | 51.43677 | 2.05878 | 37970 ft | 438 kts | 279° |
| 2026-05-05 10:06 | 51.44833 | 1.96298 | 37972 ft | 438 kts | 279° |
| 2026-05-05 10:07 | 51.45958 | 1.86774 | 37989 ft | 438 kts | 279° |
| 2026-05-05 10:07 | 51.46961 | 1.77150 | 37981 ft | 436 kts | 271° |
| 2026-05-05 10:08 | 51.47136 | 1.69055 | 37984 ft | 436 kts | 270° |
| 2026-05-05 10:08 | 51.47329 | 1.59269 | 37984 ft | 437 kts | 271° |
| 2026-05-05 10:09 | 51.47603 | 1.49540 | 37985 ft | 437 kts | 272° |
| 2026-05-05 10:09 | 51.47928 | 1.39860 | 37993 ft | 437 kts | 272° |
| 2026-05-05 10:10 | 51.48229 | 1.30112 | 37986 ft | 438 kts | 271° |
| 2026-05-05 10:10 | 51.48502 | 1.20358 | 37989 ft | 438 kts | 271° |
| 2026-05-05 10:11 | 51.48766 | 1.10597 | 37984 ft | 438 kts | 271° |
| 2026-05-05 10:11 | 51.49025 | 1.00832 | 37980 ft | 438 kts | 271° |
| 2026-05-05 10:12 | 51.49276 | 0.91050 | 38000 ft | 438 kts | 271° |
| 2026-05-05 10:12 | 51.49521 | 0.81274 | 37995 ft | 439 kts | 271° |
| 2026-05-05 10:13 | 51.49757 | 0.71530 | 37997 ft | 440 kts | 271° |
| 2026-05-05 10:13 | 51.49983 | 0.61722 | 37996 ft | 440 kts | 271° |
| 2026-05-05 10:14 | 51.50206 | 0.51904 | 38001 ft | 440 kts | 271° |
| 2026-05-05 10:14 | 51.50413 | 0.42084 | 37997 ft | 440 kts | 271° |
| 2026-05-05 10:15 | 51.50616 | 0.32253 | 37996 ft | 441 kts | 271° |
| 2026-05-05 10:15 | 51.50813 | 0.22422 | 38000 ft | 441 kts | 270° |
| 2026-05-05 10:16 | 51.50998 | 0.12567 | 37999 ft | 441 kts | 270° |
| 2026-05-05 10:16 | 51.51185 | 0.02729 | 38002 ft | 441 kts | 270° |
| 2026-05-05 10:17 | 51.51354 | -0.07125 | 37987 ft | 442 kts | 270° |
| 2026-05-05 10:17 | 51.51519 | -0.17004 | 37988 ft | 443 kts | 270° |
| 2026-05-05 10:18 | 51.51674 | -0.26902 | 37992 ft | 444 kts | 270° |
| 2026-05-05 10:18 | 51.51819 | -0.36811 | 37995 ft | 444 kts | 270° |
| 2026-05-05 10:19 | 51.51959 | -0.46722 | 37998 ft | 444 kts | 270° |
| 2026-05-05 10:19 | 51.52090 | -0.56635 | 38000 ft | 444 kts | 269° |
| 2026-05-05 10:20 | 51.52215 | -0.66557 | 38000 ft | 444 kts | 270° |
| 2026-05-05 10:20 | 51.52333 | -0.76491 | 37995 ft | 445 kts | 270° |
| 2026-05-05 10:21 | 51.52440 | -0.86424 | 37995 ft | 445 kts | 270° |
| 2026-05-05 10:21 | 51.52540 | -0.96353 | 38008 ft | 445 kts | 269° |
| 2026-05-05 10:22 | 51.52624 | -1.06287 | 38003 ft | 445 kts | 270° |
| 2026-05-05 10:22 | 51.53297 | -1.16154 | 37994 ft | 448 kts | 284° |
| 2026-05-05 10:23 | 51.55837 | -1.25290 | 37990 ft | 450 kts | 298° |
| 2026-05-05 10:23 | 51.58908 | -1.34079 | 37996 ft | 451 kts | 297° |
| 2026-05-05 10:24 | 51.63722 | -1.51897 | 38002 ft | 449 kts | 289° |
| 2026-05-05 10:25 | 51.65962 | -1.61287 | 38004 ft | 449 kts | 289° |
| 2026-05-05 10:25 | 51.67990 | -1.70781 | 38018 ft | 448 kts | 282° |
| 2026-05-05 10:26 | 51.69432 | -1.80549 | 38018 ft | 448 kts | 281° |
| 2026-05-05 10:26 | 51.70859 | -1.90326 | 38026 ft | 448 kts | 282° |
| 2026-05-05 10:27 | 51.72358 | -2.00079 | 38038 ft | 448 kts | 283° |
| 2026-05-05 10:27 | 51.73872 | -2.09827 | 38036 ft | 448 kts | 283° |
| 2026-05-05 10:28 | 51.75364 | -2.19584 | 38037 ft | 448 kts | 282° |
| 2026-05-05 10:28 | 51.76836 | -2.29361 | 38036 ft | 447 kts | 282° |
| 2026-05-05 10:29 | 51.78295 | -2.39129 | 38031 ft | 448 kts | 283° |
| 2026-05-05 10:29 | 51.79742 | -2.48846 | 38038 ft | 447 kts | 282° |
| 2026-05-05 10:30 | 51.81189 | -2.58615 | 38041 ft | 447 kts | 282° |
| 2026-05-05 10:30 | 51.82633 | -2.68374 | 38039 ft | 446 kts | 282° |
| 2026-05-05 10:31 | 51.84069 | -2.78142 | 38034 ft | 446 kts | 282° |
| 2026-05-05 10:31 | 51.85496 | -2.87899 | 38019 ft | 446 kts | 282° |
| 2026-05-05 10:32 | 51.86915 | -2.97680 | 38013 ft | 446 kts | 282° |
| 2026-05-05 10:32 | 51.88323 | -3.07461 | 38013 ft | 446 kts | 282° |
| 2026-05-05 10:33 | 51.89727 | -3.17253 | 38021 ft | 447 kts | 282° |
| 2026-05-05 10:33 | 51.91123 | -3.27050 | 38032 ft | 446 kts | 282° |
| 2026-05-05 10:34 | 51.92506 | -3.36853 | 38035 ft | 446 kts | 282° |
| 2026-05-05 10:34 | 51.93881 | -3.46671 | 38034 ft | 447 kts | 283° |
| 2026-05-05 10:35 | 51.96229 | -3.55960 | 38034 ft | 448 kts | 302° |
| 2026-05-05 10:35 | 52.00236 | -3.63671 | 38038 ft | 448 kts | 314° |
| 2026-05-05 10:36 | 52.04559 | -3.70960 | 38046 ft | 448 kts | 313° |
| 2026-05-05 10:36 | 52.08876 | -3.78299 | 38051 ft | 448 kts | 313° |
| 2026-05-05 10:37 | 52.13175 | -3.85642 | 38053 ft | 448 kts | 313° |
| 2026-05-05 10:37 | 52.17477 | -3.93012 | 38056 ft | 448 kts | 313° |
| 2026-05-05 10:38 | 52.21773 | -4.00379 | 38071 ft | 448 kts | 313° |
| 2026-05-05 10:38 | 52.23912 | -4.04047 | 37790 ft | 445 kts | 313° |
| 2026-05-05 10:38 | 52.26036 | -4.07692 | 37365 ft | 442 kts | 313° |
| 2026-05-05 10:39 | 52.28142 | -4.11310 | 36923 ft | 439 kts | 314° |
| 2026-05-05 10:39 | 52.30234 | -4.14915 | 36508 ft | 435 kts | 314° |
| 2026-05-05 10:39 | 52.32283 | -4.18456 | 36093 ft | 432 kts | 314° |
| 2026-05-05 10:39 | 52.34340 | -4.22016 | 35677 ft | 429 kts | 314° |
| 2026-05-05 10:40 | 52.36384 | -4.25552 | 35271 ft | 426 kts | 314° |
| 2026-05-05 10:40 | 52.38411 | -4.29064 | 34864 ft | 423 kts | 315° |
| 2026-05-05 10:40 | 52.40421 | -4.32556 | 34460 ft | 420 kts | 314° |
| 2026-05-05 10:40 | 52.42411 | -4.36016 | 34057 ft | 417 kts | 315° |
| 2026-05-05 10:41 | 52.44393 | -4.39467 | 33486 ft | 416 kts | 315° |
| 2026-05-05 10:41 | 52.46374 | -4.42920 | 32875 ft | 416 kts | 315° |
| 2026-05-05 10:41 | 52.48357 | -4.46382 | 32035 ft | 419 kts | 315° |
| 2026-05-05 10:41 | 52.50401 | -4.49950 | 30652 ft | 438 kts | 314° |
| 2026-05-05 10:42 | 52.54637 | -4.57364 | 28433 ft | 449 kts | 313° |
| 2026-05-05 10:42 | 52.56776 | -4.61128 | 27401 ft | 451 kts | 313° |
| 2026-05-05 10:42 | 52.58918 | -4.64912 | 26356 ft | 453 kts | 313° |
| 2026-05-05 10:43 | 52.61068 | -4.68712 | 25269 ft | 455 kts | 312° |
| 2026-05-05 10:43 | 52.63231 | -4.72538 | 24363 ft | 460 kts | 312° |
| 2026-05-05 10:43 | 52.65399 | -4.76373 | 23651 ft | 457 kts | 311° |
| 2026-05-05 10:43 | 52.67554 | -4.80187 | 22822 ft | 452 kts | 313° |
| 2026-05-05 10:44 | 52.69685 | -4.83953 | 21956 ft | 446 kts | 312° |
| 2026-05-05 10:44 | 52.71813 | -4.87632 | 21125 ft | 440 kts | 313° |
| 2026-05-05 10:44 | 52.73953 | -4.91218 | 20318 ft | 435 kts | 314° |
| 2026-05-05 10:44 | 52.76082 | -4.94719 | 19517 ft | 430 kts | 314° |
| 2026-05-05 10:45 | 52.78195 | -4.98165 | 18772 ft | 424 kts | 314° |
| 2026-05-05 10:45 | 52.80276 | -5.01572 | 17908 ft | 420 kts | 314° |
| 2026-05-05 10:45 | 52.82329 | -5.04971 | 16984 ft | 416 kts | 314° |
| 2026-05-05 10:45 | 52.84350 | -5.08354 | 16069 ft | 411 kts | 314° |
| 2026-05-05 10:46 | 52.86344 | -5.11716 | 15191 ft | 407 kts | 314° |
| 2026-05-05 10:46 | 52.88310 | -5.15049 | 14415 ft | 401 kts | 314° |
| 2026-05-05 10:46 | 52.90244 | -5.18334 | 13726 ft | 395 kts | 314° |
| 2026-05-05 10:46 | 52.92146 | -5.21559 | 13081 ft | 386 kts | 314° |
| 2026-05-05 10:47 | 52.93994 | -5.24695 | 12600 ft | 374 kts | 314° |
| 2026-05-05 10:47 | 52.95776 | -5.27714 | 12212 ft | 359 kts | 314° |
| 2026-05-05 10:47 | 52.97492 | -5.30627 | 11828 ft | 348 kts | 314° |
| 2026-05-05 10:47 | 52.99167 | -5.33470 | 11450 ft | 342 kts | 315° |
| 2026-05-05 10:48 | 53.00815 | -5.36272 | 11072 ft | 337 kts | 314° |
| 2026-05-05 10:48 | 53.02435 | -5.39030 | 10702 ft | 328 kts | 314° |
| 2026-05-05 10:48 | 53.04003 | -5.41707 | 10340 ft | 320 kts | 314° |
| 2026-05-05 10:48 | 53.05535 | -5.44329 | 9978 ft | 313 kts | 315° |
| 2026-05-05 10:49 | 53.07041 | -5.46906 | 9576 ft | 309 kts | 315° |
| 2026-05-05 10:49 | 53.08542 | -5.49469 | 9169 ft | 307 kts | 315° |
| 2026-05-05 10:49 | 53.10028 | -5.52006 | 8781 ft | 305 kts | 315° |
| 2026-05-05 10:49 | 53.11495 | -5.54517 | 8392 ft | 302 kts | 315° |
| 2026-05-05 10:50 | 53.12959 | -5.57020 | 8010 ft | 301 kts | 315° |
| 2026-05-05 10:50 | 53.14546 | -5.59276 | 7632 ft | 300 kts | 327° |
| 2026-05-05 10:50 | 53.16302 | -5.61121 | 7278 ft | 297 kts | 329° |
| 2026-05-05 10:50 | 53.18066 | -5.62924 | 6982 ft | 296 kts | 329° |
| 2026-05-05 10:51 | 53.19797 | -5.64700 | 6684 ft | 289 kts | 329° |
| 2026-05-05 10:51 | 53.21467 | -5.66421 | 6391 ft | 283 kts | 329° |
| 2026-05-05 10:51 | 53.23064 | -5.68276 | 6097 ft | 277 kts | 321° |
| 2026-05-05 10:51 | 53.24494 | -5.70385 | 5831 ft | 271 kts | 319° |
| 2026-05-05 10:52 | 53.25883 | -5.72483 | 5562 ft | 266 kts | 319° |
| 2026-05-05 10:52 | 53.27237 | -5.74545 | 5303 ft | 262 kts | 319° |
| 2026-05-05 10:52 | 53.28572 | -5.76581 | 5046 ft | 258 kts | 319° |
| 2026-05-05 10:52 | 53.29893 | -5.78602 | 4773 ft | 256 kts | 319° |
| 2026-05-05 10:53 | 53.31200 | -5.80618 | 4461 ft | 254 kts | 319° |
| 2026-05-05 10:53 | 53.32493 | -5.82617 | 4126 ft | 253 kts | 319° |
| 2026-05-05 10:53 | 53.33786 | -5.84602 | 3796 ft | 252 kts | 319° |
| 2026-05-05 10:53 | 53.35066 | -5.86571 | 3508 ft | 250 kts | 319° |
| 2026-05-05 10:54 | 53.36340 | -5.88555 | 3237 ft | 250 kts | 315° |
| 2026-05-05 10:54 | 53.37452 | -5.90787 | 3045 ft | 251 kts | 309° |
| 2026-05-05 10:54 | 53.38523 | -5.93093 | 3007 ft | 251 kts | 309° |
| 2026-05-05 10:54 | 53.39577 | -5.95393 | 3006 ft | 243 kts | 309° |
| 2026-05-05 10:55 | 53.40391 | -5.97766 | 3009 ft | 230 kts | 289° |
| 2026-05-05 10:55 | 53.40630 | -6.00352 | 3005 ft | 219 kts | 277° |
| 2026-05-05 10:55 | 53.40771 | -6.02833 | 2862 ft | 210 kts | 278° |
| 2026-05-05 10:55 | 53.40909 | -6.05240 | 2612 ft | 205 kts | 278° |
| 2026-05-05 10:56 | 53.41041 | -6.07564 | 2342 ft | 195 kts | 278° |
| 2026-05-05 10:56 | 53.41166 | -6.09742 | 2113 ft | 181 kts | 279° |
| 2026-05-05 10:56 | 53.41279 | -6.11741 | 1883 ft | 160 kts | 279° |
| 2026-05-05 10:56 | 53.41379 | -6.13462 | 1625 ft | 142 kts | 280° |
| 2026-05-05 10:57 | 53.41467 | -6.15044 | 1439 ft | 133 kts | 280° |
| 2026-05-05 10:57 | 53.41553 | -6.16568 | 1265 ft | 129 kts | 280° |
| 2026-05-05 10:57 | 53.41636 | -6.18075 | 1082 ft | 129 kts | 280° |
| 2026-05-05 10:57 | 53.41722 | -6.19592 | 904 ft | 130 kts | 279° |
| 2026-05-05 10:58 | 53.41806 | -6.21075 | 720 ft | 130 kts | 280° |
| 2026-05-05 10:58 | 53.41890 | -6.22615 | 566 ft | 134 kts | 278° |
| 2026-05-05 10:58 | 53.41973 | -6.24150 | 372 ft | 133 kts | 278° |
| 2026-05-05 10:58 | 53.42062 | -6.25705 | 219 ft | 130 kts | 278° |
| 2026-05-05 10:59 | 53.42132 | -6.27004 | 211 ft | 90 kts | 275° |
| 2026-05-05 10:59 | 53.42174 | -6.27686 | 209 ft | 35 kts | 281° |
| 2026-05-05 10:59 | 53.42245 | -6.27980 | 214 ft | 13 kts | 299° |
| 2026-05-05 10:59 | 53.42299 | -6.28117 | 211 ft | 16 kts | 319° |
| 2026-05-05 11:00 | 53.42357 | -6.28022 | 211 ft | 17 kts | 101° |
| 2026-05-05 11:00 | 53.42350 | -6.27806 | 216 ft | 20 kts | 95° |
| 2026-05-05 11:00 | 53.42336 | -6.27553 | 215 ft | 24 kts | 95° |
| 2026-05-05 11:00 | 53.42320 | -6.27265 | 216 ft | 22 kts | 96° |
| 2026-05-05 11:01 | 53.42305 | -6.27002 | 216 ft | 24 kts | 95° |
| 2026-05-05 11:01 | 53.42288 | -6.26699 | 211 ft | 28 kts | 95° |
| 2026-05-05 11:01 | 53.42270 | -6.26362 | 211 ft | 25 kts | 95° |
| 2026-05-05 11:01 | 53.42259 | -6.26062 | 211 ft | 28 kts | 82° |
| 2026-05-05 11:02 | 53.42363 | -6.25794 | 211 ft | 24 kts | 46° |
| 2026-05-05 11:02 | 53.42484 | -6.25590 | 211 ft | 27 kts | 45° |
| 2026-05-05 11:02 | 53.42581 | -6.25428 | 210 ft | 11 kts | 42° |
| 2026-05-05 11:02 | 53.42627 | -6.25348 | 211 ft | 10 kts | 47° |
| 2026-05-05 11:03 | 53.42682 | -6.25253 | 213 ft | 13 kts | 46° |
| 2026-05-05 11:03 | 53.42750 | -6.25135 | 211 ft | 14 kts | 46° |
| 2026-05-05 11:03 | 53.42794 | -6.25009 | 211 ft | 12 kts | 85° |
| 2026-05-05 11:03 | 53.42798 | -6.24903 | 218 ft | 7 kts | 86° |
| 2026-05-05 11:04 | 53.42798 | -6.24881 | 216 ft | 1 kts | 87° |
| 2026-05-05 11:04 | 53.42798 | -6.24880 | 216 ft | 0 kts | 86° |